Time;durP1;ratioP1;P1;durP2;ratioP2;P2;SDS_P1;SDS_P2;PMS_P1;PMS_P2;Temp;Humidity;BMP_temperature;BMP_pressure;BME280_temperature;BME280_humidity;BME280_pressure;Samples;Min_cycle;Max_cycle;Signal;HPM_P1;HPM_P2
2023/11/04 00:01:39;;;;;;;2.75;1.67;;;4.60;99.90;;;;;;5046793;28;20502;-64
2023/11/04 00:04:10;;;;;;;3.45;1.42;;;4.60;99.90;;;;;;5035653;28;20056;-64
2023/11/04 00:06:42;;;;;;;5.07;1.70;;;4.60;99.90;;;;;;5051509;28;20060;-64
2023/11/04 00:09:14;;;;;;;2.10;1.40;;;4.60;99.90;;;;;;5053341;28;20049;-64
2023/11/04 00:11:46;;;;;;;3.67;1.80;;;4.60;99.90;;;;;;5052290;28;20075;-64
2023/11/04 00:14:13;;;;;;;1.90;1.33;;;4.60;99.90;;;;;;5042212;28;20077;-64
2023/11/04 00:16:39;;;;;;;5.10;1.40;;;4.60;99.90;;;;;;5050879;28;20524;-64
2023/11/04 00:19:11;;;;;;;2.13;1.67;;;4.60;99.90;;;;;;5051153;28;20069;-64
2023/11/04 00:21:41;;;;;;;2.10;1.50;;;4.60;99.90;;;;;;5050868;28;20041;-64
2023/11/04 00:24:13;;;;;;;3.13;1.55;;;4.70;99.90;;;;;;5039713;28;20041;-65
2023/11/04 00:26:40;;;;;;;2.30;1.40;;;4.60;99.90;;;;;;5044244;28;20646;-64
2023/11/04 00:29:12;;;;;;;2.10;1.50;;;4.60;99.90;;;;;;5041179;28;20053;-64
2023/11/04 00:31:44;;;;;;;1.88;1.50;;;4.60;99.90;;;;;;5045727;28;20073;-63
2023/11/04 00:34:16;;;;;;;2.40;1.85;;;4.60;99.90;;;;;;5046394;28;20045;-64
2023/11/04 00:36:48;;;;;;;1.98;1.45;;;4.50;99.90;;;;;;5049741;28;20037;-64
2023/11/04 00:39:21;;;;;;;2.60;1.85;;;4.50;99.90;;;;;;5038253;28;20506;-64
2023/11/04 00:41:53;;;;;;;1.67;1.30;;;4.50;99.90;;;;;;5048537;28;20726;-64
2023/11/04 00:44:25;;;;;;;2.15;1.40;;;4.50;99.90;;;;;;5049984;28;20045;-64
2023/11/04 00:46:57;;;;;;;3.13;1.40;;;4.50;99.90;;;;;;5047084;28;20048;-64
2023/11/04 00:49:28;;;;;;;3.00;1.67;;;4.50;99.90;;;;;;5049696;28;20099;-64
2023/11/04 00:52:00;;;;;;;3.25;1.65;;;4.50;99.90;;;;;;5039752;28;20139;-64
2023/11/04 00:54:32;;;;;;;2.85;1.90;;;4.50;99.90;;;;;;5044058;28;20033;-64
2023/11/04 00:57:04;;;;;;;2.13;1.27;;;4.50;99.90;;;;;;5040185;28;20536;-64
2023/11/04 00:59:36;;;;;;;2.85;1.50;;;4.50;99.90;;;;;;5050976;28;20070;-64
2023/11/04 01:02:10;;;;;;;4.00;1.70;;;4.50;99.90;;;;;;5037288;28;20042;-64
2023/11/04 01:04:41;;;;;;;2.20;1.90;;;4.50;99.90;;;;;;5038395;28;20076;-64
2023/11/04 01:07:13;;;;;;;4.05;2.05;;;4.50;99.90;;;;;;5065012;28;20507;-64
2023/11/04 01:09:45;;;;;;;2.35;1.63;;;4.50;99.90;;;;;;5049996;28;20036;-64
2023/11/04 01:12:12;;;;;;;2.63;1.42;;;4.40;99.90;;;;;;5048647;28;20563;-64
2023/11/04 01:14:43;;;;;;;3.78;1.55;;;4.50;99.90;;;;;;5052380;28;20051;-64
2023/11/04 01:17:17;;;;;;;2.50;1.80;;;4.40;99.90;;;;;;5000323;28;20052;-64
2023/11/04 01:19:48;;;;;;;3.67;1.55;;;4.40;99.90;;;;;;5051519;28;20046;-64
2023/11/04 01:22:20;;;;;;;3.10;2.00;;;4.40;99.90;;;;;;5046046;28;20051;-64
2023/11/04 01:24:52;;;;;;;3.22;1.55;;;4.50;99.90;;;;;;5050510;28;20459;-64
2023/11/04 01:27:24;;;;;;;3.78;1.90;;;4.40;99.90;;;;;;5044318;28;20505;-64
2023/11/04 01:29:56;;;;;;;2.92;1.77;;;4.40;99.90;;;;;;5024180;28;20046;-64
2023/11/04 01:32:23;;;;;;;3.30;1.80;;;4.40;99.90;;;;;;5044087;28;20132;-64
2023/11/04 01:34:55;;;;;;;4.05;1.60;;;4.30;99.90;;;;;;5030088;28;20131;-64
2023/11/04 01:37:25;;;;;;;1.58;1.42;;;4.30;99.90;;;;;;5033628;28;20052;-64
2023/11/04 01:39:52;;;;;;;2.75;2.13;;;4.30;99.90;;;;;;5030109;28;20129;-64
2023/11/04 01:42:24;;;;;;;2.92;1.95;;;4.30;99.90;;;;;;5034200;28;20121;-64
2023/11/04 01:44:56;;;;;;;5.30;2.15;;;4.30;99.90;;;;;;5032252;28;20037;-64
2023/11/04 01:47:28;;;;;;;2.70;1.70;;;4.30;99.90;;;;;;5035067;28;20049;-64
2023/11/04 01:50:00;;;;;;;2.08;1.88;;;4.30;99.90;;;;;;5035344;28;20104;-64
2023/11/04 01:52:34;;;;;;;3.40;2.08;;;4.30;99.90;;;;;;5048782;28;20075;-64
2023/11/04 01:55:08;;;;;;;;;;;4.30;99.90;;;;;;5044975;28;20060;-64
2023/11/04 01:57:35;;;;;;;2.40;1.60;;;4.30;99.90;;;;;;5053544;28;19931;-64
2023/11/04 02:00:09;;;;;;;3.00;2.20;;;4.30;99.90;;;;;;5040955;28;20052;-64
2023/11/04 02:02:42;;;;;;;3.28;2.20;;;4.30;99.90;;;;;;5037761;28;20172;-64
2023/11/04 02:05:15;;;;;;;2.45;1.88;;;4.30;99.90;;;;;;5042901;28;20413;-64
2023/11/04 02:07:41;;;;;;;5.45;2.72;;;4.30;99.90;;;;;;5049965;28;20056;-64
2023/11/04 02:10:13;;;;;;;3.60;1.85;;;4.30;99.90;;;;;;5031529;28;20037;-64
2023/11/04 02:12:45;;;;;;;1.90;1.63;;;4.30;99.90;;;;;;5039092;28;20064;-64
2023/11/04 02:15:16;;;;;;;3.35;2.08;;;4.30;99.90;;;;;;5039640;28;20147;-64
2023/11/04 02:17:47;;;;;;;2.15;1.95;;;4.30;99.90;;;;;;5027151;28;20065;-64
2023/11/04 02:20:22;;;;;;;5.40;2.28;;;4.30;99.90;;;;;;5034960;28;20467;-64
2023/11/04 02:22:54;;;;;;;3.60;2.38;;;4.40;99.90;;;;;;5041081;28;20040;-64
2023/11/04 02:25:21;;;;;;;3.55;2.20;;;4.40;99.90;;;;;;5048991;28;20036;-64
2023/11/04 02:27:53;;;;;;;4.35;1.92;;;4.30;99.90;;;;;;5043469;28;20076;-64
2023/11/04 02:30:25;;;;;;;3.28;2.22;;;4.40;99.90;;;;;;5040598;28;20440;-64
2023/11/04 02:32:57;;;;;;;2.97;2.08;;;4.30;99.90;;;;;;5037955;28;20528;-64
2023/11/04 02:35:29;;;;;;;3.78;2.28;;;4.30;99.90;;;;;;5038153;28;20041;-64
2023/11/04 02:38:00;;;;;;;3.58;2.70;;;4.30;99.90;;;;;;5030566;28;20038;-64
2023/11/04 02:40:33;;;;;;;3.63;2.60;;;4.30;99.90;;;;;;5047200;28;20068;-64
2023/11/04 02:43:05;;;;;;;4.65;3.05;;;4.30;99.90;;;;;;5049617;28;20041;-64
2023/11/04 02:45:37;;;;;;;2.95;2.50;;;4.30;99.90;;;;;;5024464;28;20038;-64
2023/11/04 02:48:09;;;;;;;5.55;2.83;;;4.30;99.90;;;;;;5046982;28;20498;-64
2023/11/04 02:50:41;;;;;;;2.58;2.30;;;4.20;99.90;;;;;;5045392;28;20045;-64
2023/11/04 02:53:13;;;;;;;4.18;2.78;;;4.30;99.90;;;;;;5000123;28;20069;-64
2023/11/04 02:55:45;;;;;;;3.03;2.47;;;4.20;99.90;;;;;;5047130;28;20052;-64
2023/11/04 02:58:16;;;;;;;3.80;2.47;;;4.20;99.90;;;;;;5037270;28;20055;-64
2023/11/04 03:00:48;;;;;;;4.25;2.90;;;4.30;99.90;;;;;;5024171;28;20433;-64
2023/11/04 03:03:16;;;;;;;5.30;2.78;;;4.30;99.90;;;;;;5047317;28;20079;-64
2023/11/04 03:05:48;;;;;;;6.25;3.30;;;4.30;99.90;;;;;;5042610;28;20041;-64
2023/11/04 03:08:15;;;;;;;4.28;2.40;;;4.30;99.90;;;;;;5044992;28;20052;-64
2023/11/04 03:10:42;;;;;;;3.90;2.92;;;4.30;99.90;;;;;;5045170;28;20041;-64
2023/11/04 03:13:15;;;;;;;3.55;2.85;;;4.40;99.90;;;;;;5030933;28;20053;-64
2023/11/04 03:15:47;;;;;;;4.07;3.13;;;4.30;99.90;;;;;;5049331;28;20076;-64
2023/11/04 03:18:19;;;;;;;4.40;2.90;;;4.20;99.90;;;;;;5037085;28;20049;-64
2023/11/04 03:20:50;;;;;;;3.55;2.40;;;4.20;99.90;;;;;;5048881;28;20053;-64
2023/11/04 03:23:22;;;;;;;3.97;2.70;;;4.10;99.90;;;;;;5045151;28;20579;-64
2023/11/04 03:25:49;;;;;;;4.07;2.70;;;4.20;99.90;;;;;;5048381;28;20411;-64
2023/11/04 03:28:21;;;;;;;3.28;2.60;;;4.10;99.90;;;;;;5035267;28;20061;-64
2023/11/04 03:30:53;;;;;;;5.93;3.22;;;4.10;99.90;;;;;;5046816;28;20041;-64
2023/11/04 03:33:25;;;;;;;4.57;2.90;;;4.20;99.90;;;;;;5045140;28;20044;-64
2023/11/04 03:35:52;;;;;;;7.40;3.30;;;4.10;99.90;;;;;;5047204;28;20068;-64
2023/11/04 03:38:24;;;;;;;5.40;3.00;;;4.20;99.90;;;;;;5043532;28;20159;-64
2023/11/04 03:40:50;;;;;;;4.18;2.85;;;4.20;99.90;;;;;;5039826;28;20049;-64
2023/11/04 03:43:22;;;;;;;4.13;2.70;;;4.10;99.90;;;;;;5045715;28;20127;-64
2023/11/04 03:45:54;;;;;;;6.72;3.72;;;4.10;99.90;;;;;;5034974;28;20048;-64
2023/11/04 03:48:21;;;;;;;3.78;2.53;;;4.10;99.90;;;;;;5046030;28;20136;-64
2023/11/04 03:50:53;;;;;;;4.82;3.10;;;4.10;99.90;;;;;;5031785;28;20590;-64
2023/11/04 03:53:25;;;;;;;2.47;1.95;;;4.20;99.90;;;;;;5048458;28;20059;-64
2023/11/04 03:55:57;;;;;;;3.38;2.35;;;4.20;99.90;;;;;;5045702;28;20049;-64
2023/11/04 03:58:29;;;;;;;4.88;2.42;;;4.20;99.90;;;;;;5043598;28;20134;-64
2023/11/04 04:01:03;;;;;;;5.65;2.20;;;4.20;99.90;;;;;;5049778;28;20060;-64
2023/11/04 04:03:35;;;;;;;3.15;2.50;;;4.20;99.90;;;;;;5037335;28;20056;-64
2023/11/04 04:06:03;;;;;;;3.90;3.03;;;4.20;99.90;;;;;;5040099;28;20783;-64
2023/11/04 04:08:35;;;;;;;;;;;4.20;99.90;;;;;;5040951;28;20513;-64
2023/11/04 04:11:07;;;;;;;3.25;2.17;;;4.10;99.90;;;;;;5044459;28;19921;-64
2023/11/04 04:13:38;;;;;;;4.70;2.33;;;4.00;99.90;;;;;;5046280;28;20045;-64
2023/11/04 04:16:11;;;;;;;3.10;2.50;;;4.00;99.90;;;;;;5046957;28;20049;-64
2023/11/04 04:18:37;;;;;;;3.67;2.40;;;3.90;99.90;;;;;;5049514;28;20087;-64
2023/11/04 04:21:14;;;;;;;3.80;2.35;;;3.90;99.90;;;;;;5047989;28;20052;-64
2023/11/04 04:23:47;;;;;;;3.80;2.55;;;3.90;99.90;;;;;;5047771;28;20037;-64
2023/11/04 04:26:22;;;;;;;3.45;2.40;;;3.90;99.90;;;;;;5031612;28;20041;-64
2023/11/04 04:28:54;;;;;;;3.47;2.45;;;3.90;99.90;;;;;;5039889;28;20103;-64
2023/11/04 04:31:27;;;;;;;3.70;2.20;;;3.90;99.90;;;;;;5042498;28;20042;-64
2023/11/04 04:33:54;;;;;;;3.13;2.28;;;4.00;99.90;;;;;;5040877;28;20132;-64
2023/11/04 04:36:26;;;;;;;3.67;2.20;;;4.00;99.90;;;;;;5039624;28;20052;-64
2023/11/04 04:38:57;;;;;;;2.78;2.10;;;4.00;99.90;;;;;;5042781;28;20044;-64
2023/11/04 04:41:26;;;;;;;2.75;2.30;;;4.00;99.90;;;;;;5041455;28;20072;-64
2023/11/04 04:43:58;;;;;;;3.20;2.42;;;4.00;99.90;;;;;;5046329;28;20049;-64
2023/11/04 04:46:24;;;;;;;3.42;2.17;;;4.00;99.90;;;;;;5033116;28;20044;-64
2023/11/04 04:48:52;;;;;;;4.03;2.22;;;4.00;99.90;;;;;;5045663;28;20052;-64
2023/11/04 04:51:23;;;;;;;4.13;2.50;;;3.90;99.90;;;;;;5050190;28;20497;-64
2023/11/04 04:53:55;;;;;;;3.10;1.88;;;3.90;99.90;;;;;;5051822;28;20041;-64
2023/11/04 04:56:27;;;;;;;2.60;1.92;;;3.90;99.90;;;;;;5050377;28;20045;-64
2023/11/04 04:58:54;;;;;;;2.70;1.70;;;3.80;99.90;;;;;;5040160;28;20063;-64
2023/11/04 05:01:26;;;;;;;2.63;1.95;;;3.80;99.90;;;;;;5021899;28;20430;-64
2023/11/04 05:03:58;;;;;;;2.72;2.08;;;3.70;99.90;;;;;;5042297;28;20048;-64
2023/11/04 05:06:30;;;;;;;3.28;2.10;;;3.80;99.90;;;;;;5040985;28;20051;-64
2023/11/04 05:08:57;;;;;;;2.42;1.77;;;3.70;99.90;;;;;;5044504;28;20452;-64
2023/11/04 05:11:29;;;;;;;6.38;2.30;;;3.70;99.90;;;;;;5045410;28;20041;-64
2023/11/04 05:14:00;;;;;;;3.03;1.85;;;3.70;99.90;;;;;;5044350;28;20044;-64
2023/11/04 05:16:32;;;;;;;3.00;1.90;;;3.70;99.90;;;;;;5049108;28;20088;-64
2023/11/04 05:19:04;;;;;;;6.78;1.90;;;3.70;99.90;;;;;;5052082;28;20039;-64
2023/11/04 05:21:36;;;;;;;3.67;2.00;;;3.70;99.90;;;;;;5052983;28;20067;-64
2023/11/04 05:24:08;;;;;;;2.92;2.08;;;3.70;99.90;;;;;;5051637;28;20051;-64
2023/11/04 05:26:41;;;;;;;3.05;2.20;;;3.60;99.90;;;;;;5048772;28;20041;-64
2023/11/04 05:29:13;;;;;;;3.95;2.10;;;3.70;99.90;;;;;;5047839;28;20041;-64
2023/11/04 05:31:46;;;;;;;2.83;1.85;;;3.60;99.90;;;;;;5037867;28;20134;-64
2023/11/04 05:34:18;;;;;;;3.08;1.63;;;3.70;99.90;;;;;;5040312;28;20037;-64
2023/11/04 05:36:51;;;;;;;2.17;1.50;;;3.60;99.90;;;;;;5043398;28;20045;-64
2023/11/04 05:39:23;;;;;;;2.00;1.50;;;3.60;99.90;;;;;;5042095;28;20060;-64
2023/11/04 05:41:55;;;;;;;2.35;1.77;;;3.60;99.90;;;;;;5037081;28;20056;-64
2023/11/04 05:44:27;;;;;;;2.63;1.77;;;3.60;99.90;;;;;;5038072;28;20048;-64
2023/11/04 05:46:59;;;;;;;2.30;1.67;;;3.60;99.90;;;;;;5040688;28;20573;-64
2023/11/04 05:49:31;;;;;;;5.25;2.03;;;3.50;99.90;;;;;;5030622;28;20033;-64
2023/11/04 05:51:58;;;;;;;2.53;1.80;;;3.50;99.90;;;;;;5033938;28;20047;-64
2023/11/04 05:54:30;;;;;;;2.47;1.88;;;3.40;99.90;;;;;;5031675;28;20057;-64
2023/11/04 05:57:02;;;;;;;3.80;1.63;;;3.50;99.90;;;;;;5036710;28;20057;-64
2023/11/04 05:59:37;;;;;;;2.92;1.77;;;3.50;99.90;;;;;;5033450;28;20084;-64
2023/11/04 06:02:09;;;;;;;2.50;1.80;;;3.40;99.90;;;;;;5041368;28;20056;-64
2023/11/04 06:04:41;;;;;;;2.20;1.75;;;3.40;99.90;;;;;;5043270;28;20064;-64
2023/11/04 06:07:13;;;;;;;2.45;1.60;;;3.40;99.90;;;;;;5040497;28;20593;-64
2023/11/04 06:09:45;;;;;;;3.53;1.90;;;3.30;99.90;;;;;;5043714;28;20124;-64
2023/11/04 06:12:17;;;;;;;2.97;1.60;;;3.40;99.90;;;;;;5044019;28;20041;-64
2023/11/04 06:14:49;;;;;;;2.03;1.65;;;3.30;99.90;;;;;;5043947;28;20045;-64
2023/11/04 06:17:16;;;;;;;2.40;1.80;;;3.30;99.90;;;;;;5047546;28;20040;-64
2023/11/04 06:19:48;;;;;;;2.20;1.35;;;3.20;99.90;;;;;;5028826;28;20049;-64
2023/11/04 06:22:20;;;;;;;1.83;1.40;;;3.30;99.90;;;;;;5039591;28;20076;-64
2023/11/04 06:24:54;;;;;;;2.10;1.50;;;3.30;99.90;;;;;;5050381;28;20656;-64
2023/11/04 06:27:26;;;;;;;2.90;1.50;;;3.30;99.90;;;;;;5027657;28;20521;-64
2023/11/04 06:29:53;;;;;;;2.35;1.70;;;3.30;99.90;;;;;;5042186;28;20396;-64
2023/11/04 06:32:25;;;;;;;2.88;1.90;;;3.30;99.90;;;;;;5047943;28;20044;-64
2023/11/04 06:34:58;;;;;;;2.10;1.50;;;3.30;99.90;;;;;;5048437;28;20483;-62
2023/11/04 06:37:30;;;;;;;6.18;1.77;;;3.40;99.90;;;;;;5038620;28;20544;-62
2023/11/04 06:40:02;;;;;;;2.53;1.70;;;3.30;99.90;;;;;;5037132;28;20119;-61
2023/11/04 06:42:35;;;;;;;2.53;1.73;;;3.30;99.90;;;;;;5041535;28;20548;-61
2023/11/04 06:45:08;;;;;;;2.33;1.40;;;3.30;99.90;;;;;;5034827;28;20501;-61
2023/11/04 06:47:40;;;;;;;2.55;1.50;;;3.30;99.90;;;;;;5038588;28;20048;-61
2023/11/04 06:50:12;;;;;;;3.10;2.08;;;3.30;99.90;;;;;;5037988;28;20606;-62
2023/11/04 06:52:44;;;;;;;2.65;1.77;;;3.30;99.90;;;;;;5029950;28;20061;-61
2023/11/04 06:55:16;;;;;;;2.88;1.90;;;3.30;99.90;;;;;;5044134;28;20053;-62
2023/11/04 06:57:48;;;;;;;2.80;2.20;;;3.30;99.90;;;;;;5035809;28;20041;-62
2023/11/04 07:00:20;;;;;;;3.10;2.20;;;3.30;99.90;;;;;;5038633;28;20037;-62
2023/11/04 07:02:52;;;;;;;3.03;2.08;;;3.30;99.90;;;;;;5033413;28;20048;-62
2023/11/04 07:05:24;;;;;;;3.85;2.10;;;3.30;99.90;;;;;;5042916;28;20386;-62
2023/11/04 07:07:55;;;;;;;2.95;2.00;;;3.30;99.90;;;;;;5039337;28;20064;-61
2023/11/04 07:10:27;;;;;;;2.58;1.90;;;3.30;99.90;;;;;;5039585;28;20044;-64
2023/11/04 07:12:59;;;;;;;5.57;2.35;;;3.40;99.90;;;;;;5039466;28;20037;-62
2023/11/04 07:15:26;;;;;;;3.33;1.85;;;3.40;99.90;;;;;;5034785;28;20037;-61
2023/11/04 07:17:53;;;;;;;4.07;1.98;;;3.40;99.90;;;;;;5032649;28;20103;-61
2023/11/04 07:20:25;;;;;;;1.98;1.58;;;3.40;99.90;;;;;;5033555;28;20041;-62
2023/11/04 07:22:57;;;;;;;3.63;1.77;;;3.50;99.90;;;;;;5031384;28;20116;-62
2023/11/04 07:25:30;;;;;;;3.53;1.50;;;3.60;99.90;;;;;;5038380;28;20049;-61
2023/11/04 07:28:02;;;;;;;2.20;1.75;;;3.70;99.90;;;;;;5031148;28;20052;-62
2023/11/04 07:30:36;;;;;;;2.95;1.80;;;3.70;99.90;;;;;;5033361;28;20045;-62
2023/11/04 07:33:08;;;;;;;4.85;1.73;;;3.80;99.90;;;;;;5050468;28;20128;-61
2023/11/04 07:35:39;;;;;;;1.38;1.25;;;4.00;99.90;;;;;;5046495;28;20505;-61
2023/11/04 07:38:08;;;;;;;2.42;1.77;;;4.00;99.90;;;;;;5046172;28;20043;-62
2023/11/04 07:40:35;;;;;;;2.70;1.65;;;4.10;99.90;;;;;;5038631;28;20095;-61
2023/11/04 07:43:07;;;;;;;4.07;1.73;;;4.20;99.90;;;;;;5000459;28;1107593;-62
2023/11/04 07:45:39;;;;;;;3.45;1.60;;;4.30;99.90;;;;;;5040959;28;20071;-61
2023/11/04 07:48:10;;;;;;;4.72;1.30;;;4.40;99.90;;;;;;5032768;28;20100;-61
2023/11/04 07:50:42;;;;;;;2.50;1.23;;;4.50;99.90;;;;;;5046166;28;20486;-62
2023/11/04 07:53:15;;;;;;;2.47;1.33;;;4.50;99.90;;;;;;5045620;28;20529;-61
2023/11/04 07:55:47;;;;;;;1.38;0.93;;;4.70;99.90;;;;;;5028150;28;20041;-64
2023/11/04 07:58:21;;;;;;;3.83;1.10;;;4.80;99.90;;;;;;5031690;28;20537;-64
2023/11/04 08:00:53;;;;;;;2.63;1.20;;;4.90;99.90;;;;;;5033651;28;20049;-64
2023/11/04 08:03:25;;;;;;;1.83;1.20;;;5.00;99.90;;;;;;5032561;28;20056;-64
2023/11/04 08:05:58;;;;;;;1.73;1.00;;;5.10;99.90;;;;;;5036634;28;20044;-64
2023/11/04 08:08:25;;;;;;;1.45;1.00;;;5.20;99.90;;;;;;5042869;28;20128;-64
2023/11/04 08:10:57;;;;;;;2.20;1.20;;;5.30;99.90;;;;;;5037927;28;20160;-62
2023/11/04 08:13:29;;;;;;;1.50;1.05;;;5.40;99.90;;;;;;5027089;28;20040;-64
2023/11/04 08:16:01;;;;;;;3.28;1.00;;;5.50;99.90;;;;;;5030009;28;20041;-64
2023/11/04 08:18:32;;;;;;;1.60;0.82;;;5.60;99.90;;;;;;5030504;28;20045;-64
2023/11/04 08:21:05;;;;;;;4.18;1.02;;;5.80;99.90;;;;;;5026752;28;20469;-64
2023/11/04 08:23:37;;;;;;;2.90;1.52;;;6.00;99.90;;;;;;5024675;28;20845;-64
2023/11/04 08:26:10;;;;;;;1.20;0.60;;;6.20;99.90;;;;;;5020035;28;20056;-64
2023/11/04 08:28:42;;;;;;;0.65;0.40;;;6.30;99.90;;;;;;5031055;28;20390;-64
2023/11/04 08:31:14;;;;;;;1.50;0.60;;;6.40;99.90;;;;;;5033603;28;20052;-64
2023/11/04 08:33:48;;;;;;;0.85;0.50;;;6.50;99.90;;;;;;5035171;28;20068;-63
2023/11/04 08:36:20;;;;;;;0.57;0.50;;;6.60;99.90;;;;;;5034275;28;20563;-64
2023/11/04 08:38:47;;;;;;;1.27;0.30;;;6.70;99.90;;;;;;5039989;28;20057;-64
2023/11/04 08:41:19;;;;;;;0.70;0.60;;;6.80;99.90;;;;;;5037751;28;20044;-64
2023/11/04 08:43:51;;;;;;;0.85;0.50;;;6.80;99.90;;;;;;5032808;28;20864;-64
2023/11/04 08:46:23;;;;;;;1.67;0.63;;;6.80;99.90;;;;;;5036625;28;20524;-64
2023/11/04 08:48:55;;;;;;;0.32;0.32;;;6.90;99.90;;;;;;5048388;28;20789;-65
2023/11/04 08:51:27;;;;;;;2.17;1.27;;;7.00;99.90;;;;;;5034493;28;20041;-65
2023/11/04 08:53:59;;;;;;;1.17;0.55;;;7.10;99.90;;;;;;5032973;28;20046;-64
2023/11/04 08:56:31;;;;;;;0.60;0.30;;;7.20;99.90;;;;;;5050762;28;20111;-63
2023/11/04 08:59:03;;;;;;;0.60;0.40;;;7.30;99.90;;;;;;5027677;28;20053;-63
2023/11/04 09:01:35;;;;;;;1.75;0.65;;;7.40;99.90;;;;;;5031709;28;20049;-65
2023/11/04 09:04:08;;;;;;;1.15;0.65;;;7.50;99.90;;;;;;5035265;28;20531;-64
2023/11/04 09:06:34;;;;;;;0.60;0.40;;;7.60;99.90;;;;;;5033289;28;20610;-64
2023/11/04 09:09:02;;;;;;;0.52;0.47;;;7.60;99.90;;;;;;5037690;28;20133;-64
2023/11/04 09:11:35;;;;;;;1.30;0.47;;;7.70;99.90;;;;;;5036491;28;20044;-64
2023/11/04 09:14:04;;;;;;;0.73;0.40;;;7.80;99.90;;;;;;5039775;28;20519;-64
2023/11/04 09:16:36;;;;;;;0.60;0.40;;;7.80;99.90;;;;;;5041993;28;20037;-64
2023/11/04 09:19:08;;;;;;;0.60;0.40;;;7.90;99.90;;;;;;5040994;28;20047;-64
2023/11/04 09:21:40;;;;;;;0.63;0.40;;;7.90;99.90;;;;;;5037054;28;20351;-64
2023/11/04 09:24:12;;;;;;;0.40;0.30;;;8.10;99.90;;;;;;5021041;28;20042;-63
2023/11/04 09:26:44;;;;;;;0.47;0.30;;;8.20;99.90;;;;;;5034933;28;20043;-64
2023/11/04 09:29:16;;;;;;;0.75;0.40;;;8.30;99.90;;;;;;5025046;28;20042;-64
2023/11/04 09:31:48;;;;;;;2.08;0.55;;;8.40;99.90;;;;;;5029501;28;20050;-64
2023/11/04 09:34:19;;;;;;;1.30;0.55;;;8.40;99.90;;;;;;5026403;28;20048;-64
2023/11/04 09:36:46;;;;;;;0.43;0.30;;;8.40;99.90;;;;;;5038867;28;20033;-64
2023/11/04 09:39:18;;;;;;;0.90;0.40;;;8.40;99.90;;;;;;5046171;28;20591;-64
2023/11/04 09:41:51;;;;;;;1.92;0.40;;;8.50;99.90;;;;;;5040069;28;20077;-64
2023/11/04 09:44:18;;;;;;;0.80;0.40;;;8.50;99.90;;;;;;5039052;28;20067;-64
2023/11/04 09:46:51;;;;;;;0.90;0.40;;;8.50;99.90;;;;;;5036934;28;20045;-64
2023/11/04 09:49:22;;;;;;;1.20;0.40;;;8.60;99.90;;;;;;5035963;28;20122;-64
2023/11/04 09:51:56;;;;;;;1.05;0.50;;;8.60;99.90;;;;;;5031841;28;20057;-64
2023/11/04 09:54:30;;;;;;;0.82;0.40;;;8.70;99.90;;;;;;5032148;28;20129;-64
2023/11/04 09:57:02;;;;;;;10.27;4.05;;;8.80;99.90;;;;;;5029033;28;20073;-64
2023/11/04 09:59:34;;;;;;;2.55;1.40;;;8.90;99.90;;;;;;5024631;28;20136;-64
2023/11/04 10:02:10;;;;;;;2.05;0.70;;;9.00;99.90;;;;;;5028495;28;20030;-64
2023/11/04 10:04:42;;;;;;;1.15;0.80;;;9.10;99.90;;;;;;5030704;28;20042;-64
2023/11/04 10:07:14;;;;;;;1.15;0.40;;;9.20;99.90;;;;;;5023869;28;20585;-64
2023/11/04 10:09:47;;;;;;;0.85;0.30;;;9.30;99.90;;;;;;5028675;28;20045;-64
2023/11/04 10:12:15;;;;;;;0.82;0.73;;;9.30;99.90;;;;;;5030705;28;20053;-64
2023/11/04 10:14:47;;;;;;;2.43;0.50;;;9.40;99.90;;;;;;5029729;28;20037;-64
2023/11/04 10:17:19;;;;;;;0.95;0.30;;;9.40;99.90;;;;;;5031831;28;20041;-64
2023/11/04 10:19:52;;;;;;;0.45;0.22;;;9.40;99.90;;;;;;5033619;28;20494;-64
2023/11/04 10:22:24;;;;;;;2.13;0.40;;;9.40;99.90;;;;;;5034526;28;20044;-64
2023/11/04 10:24:59;;;;;;;0.70;0.30;;;9.50;99.90;;;;;;5034153;28;20046;-64
2023/11/04 10:27:31;;;;;;;0.60;0.40;;;9.60;99.90;;;;;;5023885;28;20581;-64
2023/11/04 10:30:04;;;;;;;0.77;0.30;;;9.70;99.90;;;;;;5027134;28;20042;-64
2023/11/04 10:32:36;;;;;;;0.30;0.22;;;9.70;99.90;;;;;;5026830;28;20095;-64
2023/11/04 10:35:12;;;;;;;1.25;0.60;;;9.80;99.90;;;;;;5027953;28;20526;-65
2023/11/04 10:37:46;;;;;;;0.57;0.30;;;9.90;99.90;;;;;;5028859;28;20043;-65
2023/11/04 10:40:19;;;;;;;0.55;0.52;;;10.00;99.90;;;;;;5032553;28;20064;-65
2023/11/04 10:43:10;;;;;;;1.38;0.20;;;10.00;99.90;;;;;;5028141;28;20516;-65
2023/11/04 10:46:07;;;;;;;0.20;0.20;;;10.10;99.90;;;;;;5032784;28;20723;-64
2023/11/04 10:49:09;;;;;;;0.52;0.35;;;10.10;99.90;;;;;;5029619;28;20041;-64
2023/11/04 10:51:46;;;;;;;1.02;0.20;;;10.00;99.90;;;;;;5032952;28;20037;-64
2023/11/04 10:54:44;;;;;;;0.25;0.20;;;10.00;99.90;;;;;;5031204;28;20134;-64
2023/11/04 10:57:30;;;;;;;0.50;0.17;;;9.90;99.90;;;;;;5034552;28;20494;-64
2023/11/04 11:00:13;;;;;;;2.50;0.25;;;10.00;99.90;;;;;;5030682;28;20049;-64
2023/11/04 11:02:47;;;;;;;0.55;0.22;;;10.00;99.90;;;;;;5028221;28;20099;-64
2023/11/04 11:05:17;;;;;;;2.75;1.83;;;10.00;99.90;;;;;;5028556;28;20033;-64
2023/11/04 11:07:49;;;;;;;6.35;4.00;;;10.00;99.90;;;;;;5030600;28;20042;-65
2023/11/04 11:10:31;;;;;;;2.13;1.42;;;10.00;99.90;;;;;;5042410;28;20069;-64
2023/11/04 11:13:15;;;;;;;1.05;0.73;;;10.10;99.90;;;;;;5038388;28;20502;-64
2023/11/04 11:15:48;;;;;;;2.28;1.02;;;10.00;99.90;;;;;;5042701;28;20053;-65
2023/11/04 11:18:30;;;;;;;1.98;1.30;;;10.10;99.90;;;;;;5040104;28;20041;-64
2023/11/04 11:21:09;;;;;;;2.83;2.00;;;10.10;99.90;;;;;;5037042;28;20072;-64
2023/11/04 11:23:42;;;;;;;3.40;2.53;;;10.10;99.90;;;;;;5037344;28;20046;-64
2023/11/04 11:26:13;;;;;;;19.15;9.65;;;10.10;99.90;;;;;;5046519;28;20043;-64
2023/11/04 11:28:45;;;;;;;22.90;14.05;;;10.10;99.90;;;;;;5041562;28;20052;-64
2023/11/04 11:31:27;;;;;;;20.90;13.13;;;10.10;99.90;;;;;;5036738;28;20049;-64
2023/11/04 11:34:07;;;;;;;11.50;7.70;;;10.10;99.90;;;;;;5030986;28;20069;-64
2023/11/04 11:36:44;;;;;;;5.22;3.83;;;10.00;99.90;;;;;;5033738;28;20049;-65
2023/11/04 11:39:16;;;;;;;3.22;2.25;;;10.00;99.90;;;;;;5037339;28;20527;-64
2023/11/04 11:41:48;;;;;;;2.97;1.00;;;10.00;99.90;;;;;;5035134;28;20045;-64
2023/11/04 11:44:20;;;;;;;1.92;0.90;;;9.90;99.90;;;;;;5040749;28;20548;-64
2023/11/04 11:46:47;;;;;;;1.60;0.70;;;9.90;99.90;;;;;;5047565;28;20509;-64
2023/11/04 11:49:19;;;;;;;0.93;0.50;;;9.90;99.90;;;;;;5039051;28;20493;-64
2023/11/04 11:51:46;;;;;;;1.95;0.50;;;9.90;99.90;;;;;;5040979;28;20044;-63
2023/11/04 11:54:19;;;;;;;0.93;0.60;;;9.90;99.90;;;;;;5034326;28;20044;-64
2023/11/04 11:56:46;;;;;;;0.95;0.63;;;9.90;99.90;;;;;;5034012;28;20063;-64
2023/11/04 11:59:17;;;;;;;1.45;0.47;;;9.90;99.90;;;;;;5047857;28;20505;-64
2023/11/04 12:01:50;;;;;;;1.58;0.70;;;9.90;99.90;;;;;;5030051;28;20510;-64
2023/11/04 12:04:22;;;;;;;1.83;0.60;;;9.90;99.90;;;;;;5025534;28;20048;-64
2023/11/04 12:06:54;;;;;;;3.45;1.77;;;9.90;99.90;;;;;;5032010;28;20118;-64
2023/11/04 12:09:26;;;;;;;1.02;0.60;;;9.90;99.90;;;;;;5036717;28;20093;-64
2023/11/04 12:11:58;;;;;;;2.13;0.50;;;10.00;99.90;;;;;;5038909;28;20512;-64
2023/11/04 12:14:30;;;;;;;0.93;0.40;;;10.00;99.90;;;;;;5034488;28;20456;-64
2023/11/04 12:17:05;;;;;;;0.55;0.40;;;10.10;99.90;;;;;;5040214;28;20128;-64
2023/11/04 12:19:33;;;;;;;0.60;0.40;;;10.20;99.90;;;;;;5032395;28;20711;-64
2023/11/04 12:22:05;;;;;;;0.60;0.43;;;10.30;99.90;;;;;;5036107;28;20044;-64
2023/11/04 12:24:32;;;;;;;0.77;0.63;;;10.50;99.90;;;;;;5036125;28;20557;-64
2023/11/04 12:27:04;;;;;;;0.88;0.40;;;10.60;99.90;;;;;;5036271;28;20158;-64
2023/11/04 12:29:38;;;;;;;2.92;1.05;;;10.60;99.90;;;;;;5040061;28;20437;-64
2023/11/04 12:32:22;;;;;;;0.55;0.30;;;10.70;99.90;;;;;;5042385;28;20041;-64
2023/11/04 12:34:56;;;;;;;1.25;0.47;;;10.70;99.90;;;;;;5047477;28;20052;-63
2023/11/04 12:37:27;;;;;;;0.95;0.75;;;10.70;99.90;;;;;;5025647;28;20041;-64
2023/11/04 12:40:00;;;;;;;3.60;1.58;;;10.70;99.90;;;;;;5036040;28;20052;-64
2023/11/04 12:42:27;;;;;;;11.77;2.42;;;10.70;99.90;;;;;;5039750;28;20125;-64
2023/11/04 12:44:58;;;;;;;0.68;0.50;;;10.70;99.90;;;;;;5036252;28;20442;-64
2023/11/04 12:47:31;;;;;;;4.07;1.98;;;10.90;99.90;;;;;;5033644;28;20048;-64
2023/11/04 12:50:03;;;;;;;1.33;0.80;;;10.90;99.90;;;;;;5034154;28;20064;-64
2023/11/04 12:52:34;;;;;;;4.57;1.02;;;11.00;99.90;;;;;;5033524;28;20038;-66
2023/11/04 12:55:06;;;;;;;1.58;0.73;;;11.10;99.90;;;;;;5038758;28;20412;-64
2023/11/04 12:57:40;;;;;;;1.75;0.60;;;11.00;99.90;;;;;;5030979;28;20133;-64
2023/11/04 13:00:09;;;;;;;1.48;0.60;;;10.90;99.90;;;;;;5033236;28;20064;-64
2023/11/04 13:02:41;;;;;;;3.22;0.93;;;10.90;99.90;;;;;;5032109;28;20041;-64
2023/11/04 13:05:08;;;;;;;1.10;0.60;;;11.00;99.90;;;;;;5032042;28;20120;-64
2023/11/04 13:07:41;;;;;;;1.25;0.52;;;11.00;99.90;;;;;;5030187;28;20045;-64
2023/11/04 13:10:08;;;;;;;0.80;0.40;;;10.90;99.90;;;;;;5029739;28;20039;-64
2023/11/04 13:12:40;;;;;;;0.90;0.38;;;10.90;99.90;;;;;;5038965;28;20033;-64
2023/11/04 13:15:13;;;;;;;0.70;0.40;;;10.90;99.90;;;;;;5039510;28;20522;-64
2023/11/04 13:17:44;;;;;;;1.57;0.50;;;10.90;99.90;;;;;;5057782;28;20041;-64
2023/11/04 13:20:11;;;;;;;0.75;0.40;;;10.80;99.90;;;;;;5034398;28;20051;-64